sensor_id;sensor_type;location;lat;lon;timestamp;temperature;humidity
52203;DHT22;38173;52.850;6.970;2024-03-02T00:00:08;6.20;99.90
52203;DHT22;38173;52.850;6.970;2024-03-02T00:02:47;6.10;99.90
52203;DHT22;38173;52.850;6.970;2024-03-02T00:05:18;6.10;99.90
52203;DHT22;38173;52.850;6.970;2024-03-02T00:07:47;6.10;99.90
52203;DHT22;38173;52.850;6.970;2024-03-02T00:10:20;6.10;99.90
52203;DHT22;38173;52.850;6.970;2024-03-02T00:12:47;6.10;99.90
52203;DHT22;38173;52.850;6.970;2024-03-02T00:17:58;6.20;99.90
52203;DHT22;38173;52.850;6.970;2024-03-02T00:20:24;6.10;99.90
52203;DHT22;38173;52.850;6.970;2024-03-02T00:23:03;6.10;99.90
52203;DHT22;38173;52.850;6.970;2024-03-02T00:25:40;6.10;99.90
52203;DHT22;38173;52.850;6.970;2024-03-02T00:33:20;6.10;99.90
52203;DHT22;38173;52.850;6.970;2024-03-02T00:35:47;6.10;99.90
52203;DHT22;38173;52.850;6.970;2024-03-02T00:38:14;6.10;99.90
52203;DHT22;38173;52.850;6.970;2024-03-02T00:40:44;6.10;99.90
52203;DHT22;38173;52.850;6.970;2024-03-02T00:43:47;6.20;99.90
52203;DHT22;38173;52.850;6.970;2024-03-02T00:46:15;6.20;99.90
52203;DHT22;38173;52.850;6.970;2024-03-02T00:48:59;6.30;99.90
52203;DHT22;38173;52.850;6.970;2024-03-02T00:51:30;6.30;99.90
52203;DHT22;38173;52.850;6.970;2024-03-02T00:53:59;6.40;99.90
52203;DHT22;38173;52.850;6.970;2024-03-02T00:56:25;6.40;99.90
52203;DHT22;38173;52.850;6.970;2024-03-02T00:58:52;6.40;99.90
52203;DHT22;38173;52.850;6.970;2024-03-02T01:01:18;6.40;99.90
52203;DHT22;38173;52.850;6.970;2024-03-02T01:03:45;6.50;99.90
52203;DHT22;38173;52.850;6.970;2024-03-02T01:06:11;6.50;99.90
52203;DHT22;38173;52.850;6.970;2024-03-02T01:08:38;6.50;99.90
52203;DHT22;38173;52.850;6.970;2024-03-02T01:11:04;6.50;99.90
52203;DHT22;38173;52.850;6.970;2024-03-02T01:13:30;6.50;99.90
52203;DHT22;38173;52.850;6.970;2024-03-02T01:15:56;6.60;99.90
52203;DHT22;38173;52.850;6.970;2024-03-02T01:18:22;6.50;99.90
52203;DHT22;38173;52.850;6.970;2024-03-02T01:20:48;6.60;99.90
52203;DHT22;38173;52.850;6.970;2024-03-02T01:23:18;6.50;99.90
52203;DHT22;38173;52.850;6.970;2024-03-02T01:25:45;6.50;99.90
52203;DHT22;38173;52.850;6.970;2024-03-02T01:28:12;6.50;99.90
52203;DHT22;38173;52.850;6.970;2024-03-02T01:30:37;6.60;99.90
52203;DHT22;38173;52.850;6.970;2024-03-02T01:33:03;6.60;99.90
52203;DHT22;38173;52.850;6.970;2024-03-02T01:35:31;6.60;99.90
52203;DHT22;38173;52.850;6.970;2024-03-02T01:37:57;6.60;99.90
52203;DHT22;38173;52.850;6.970;2024-03-02T01:40:23;6.60;99.90
52203;DHT22;38173;52.850;6.970;2024-03-02T01:42:52;6.60;99.90
52203;DHT22;38173;52.850;6.970;2024-03-02T01:45:20;6.60;99.90
52203;DHT22;38173;52.850;6.970;2024-03-02T01:47:45;6.70;99.90
52203;DHT22;38173;52.850;6.970;2024-03-02T01:50:12;6.70;99.90
52203;DHT22;38173;52.850;6.970;2024-03-02T01:52:38;6.70;99.90
52203;DHT22;38173;52.850;6.970;2024-03-02T01:55:05;6.70;99.90
52203;DHT22;38173;52.850;6.970;2024-03-02T01:57:32;6.70;99.90
52203;DHT22;38173;52.850;6.970;2024-03-02T01:59:58;6.80;99.90
52203;DHT22;38173;52.850;6.970;2024-03-02T02:02:24;6.80;99.90
52203;DHT22;38173;52.850;6.970;2024-03-02T02:04:49;6.80;99.90
52203;DHT22;38173;52.850;6.970;2024-03-02T02:07:15;6.80;99.90
52203;DHT22;38173;52.850;6.970;2024-03-02T02:09:44;6.90;99.90
52203;DHT22;38173;52.850;6.970;2024-03-02T02:12:10;6.90;99.90
52203;DHT22;38173;52.850;6.970;2024-03-02T02:14:36;7.00;99.90
52203;DHT22;38173;52.850;6.970;2024-03-02T02:17:05;7.00;99.90
52203;DHT22;38173;52.850;6.970;2024-03-02T02:19:31;7.10;99.90
52203;DHT22;38173;52.850;6.970;2024-03-02T02:21:56;7.10;99.90
52203;DHT22;38173;52.850;6.970;2024-03-02T02:24:22;7.10;99.90
52203;DHT22;38173;52.850;6.970;2024-03-02T02:26:48;7.10;99.90
52203;DHT22;38173;52.850;6.970;2024-03-02T02:29:13;7.20;99.90
52203;DHT22;38173;52.850;6.970;2024-03-02T02:31:40;7.10;99.90
52203;DHT22;38173;52.850;6.970;2024-03-02T02:34:06;7.20;99.90
52203;DHT22;38173;52.850;6.970;2024-03-02T02:36:33;7.10;99.90
52203;DHT22;38173;52.850;6.970;2024-03-02T02:39:03;7.10;99.90
52203;DHT22;38173;52.850;6.970;2024-03-02T02:41:30;7.10;99.90
52203;DHT22;38173;52.850;6.970;2024-03-02T02:43:56;7.00;99.90
52203;DHT22;38173;52.850;6.970;2024-03-02T02:46:22;7.00;99.90
52203;DHT22;38173;52.850;6.970;2024-03-02T02:48:48;7.00;99.90
52203;DHT22;38173;52.850;6.970;2024-03-02T02:51:13;6.90;99.90
52203;DHT22;38173;52.850;6.970;2024-03-02T02:53:39;6.90;99.90
52203;DHT22;38173;52.850;6.970;2024-03-02T02:56:08;6.90;99.90
52203;DHT22;38173;52.850;6.970;2024-03-02T02:58:33;6.90;99.90
52203;DHT22;38173;52.850;6.970;2024-03-02T03:00:59;6.90;99.90
52203;DHT22;38173;52.850;6.970;2024-03-02T03:03:25;6.90;99.90
52203;DHT22;38173;52.850;6.970;2024-03-02T03:05:51;6.90;99.90
52203;DHT22;38173;52.850;6.970;2024-03-02T03:08:16;6.90;99.90
52203;DHT22;38173;52.850;6.970;2024-03-02T03:10:42;6.90;99.90
52203;DHT22;38173;52.850;6.970;2024-03-02T03:13:08;7.00;99.90
52203;DHT22;38173;52.850;6.970;2024-03-02T03:15:37;7.00;99.90
52203;DHT22;38173;52.850;6.970;2024-03-02T03:18:04;7.10;99.90
52203;DHT22;38173;52.850;6.970;2024-03-02T03:20:30;7.20;99.90
52203;DHT22;38173;52.850;6.970;2024-03-02T03:22:56;7.20;99.90
52203;DHT22;38173;52.850;6.970;2024-03-02T03:25:22;7.20;99.90
52203;DHT22;38173;52.850;6.970;2024-03-02T03:27:48;7.20;99.90
52203;DHT22;38173;52.850;6.970;2024-03-02T03:30:17;7.20;99.90
52203;DHT22;38173;52.850;6.970;2024-03-02T03:32:42;7.30;99.90
52203;DHT22;38173;52.850;6.970;2024-03-02T03:35:08;7.30;99.90
52203;DHT22;38173;52.850;6.970;2024-03-02T03:37:34;7.30;99.90
52203;DHT22;38173;52.850;6.970;2024-03-02T03:40:00;7.30;99.90
52203;DHT22;38173;52.850;6.970;2024-03-02T03:42:26;7.40;99.90
52203;DHT22;38173;52.850;6.970;2024-03-02T03:44:52;7.40;99.90
52203;DHT22;38173;52.850;6.970;2024-03-02T03:47:20;7.40;99.90
52203;DHT22;38173;52.850;6.970;2024-03-02T03:49:46;7.40;99.90
52203;DHT22;38173;52.850;6.970;2024-03-02T03:52:12;7.40;99.90
52203;DHT22;38173;52.850;6.970;2024-03-02T03:54:37;7.30;99.90
52203;DHT22;38173;52.850;6.970;2024-03-02T03:57:04;7.10;99.90
52203;DHT22;38173;52.850;6.970;2024-03-02T03:59:30;7.20;99.90
52203;DHT22;38173;52.850;6.970;2024-03-02T04:01:56;7.10;99.90
52203;DHT22;38173;52.850;6.970;2024-03-02T04:04:22;7.10;99.90
52203;DHT22;38173;52.850;6.970;2024-03-02T04:06:48;7.10;99.90
52203;DHT22;38173;52.850;6.970;2024-03-02T04:09:13;7.00;99.90
52203;DHT22;38173;52.850;6.970;2024-03-02T04:11:39;7.00;99.90
52203;DHT22;38173;52.850;6.970;2024-03-02T04:14:05;7.00;99.90
52203;DHT22;38173;52.850;6.970;2024-03-02T04:16:31;7.10;99.90
52203;DHT22;38173;52.850;6.970;2024-03-02T04:18:57;7.10;99.90
52203;DHT22;38173;52.850;6.970;2024-03-02T04:21:23;7.10;99.90
52203;DHT22;38173;52.850;6.970;2024-03-02T04:23:48;7.10;99.90
52203;DHT22;38173;52.850;6.970;2024-03-02T04:26:14;7.10;99.90
52203;DHT22;38173;52.850;6.970;2024-03-02T04:28:40;7.00;99.90
52203;DHT22;38173;52.850;6.970;2024-03-02T04:31:06;6.90;99.90
52203;DHT22;38173;52.850;6.970;2024-03-02T04:33:32;6.70;99.90
52203;DHT22;38173;52.850;6.970;2024-03-02T04:35:57;6.70;99.90
52203;DHT22;38173;52.850;6.970;2024-03-02T04:38:23;6.60;99.90
52203;DHT22;38173;52.850;6.970;2024-03-02T04:40:49;6.60;99.90
52203;DHT22;38173;52.850;6.970;2024-03-02T04:43:14;6.60;99.90
52203;DHT22;38173;52.850;6.970;2024-03-02T04:45:42;6.50;99.90
52203;DHT22;38173;52.850;6.970;2024-03-02T04:48:08;6.50;99.90
52203;DHT22;38173;52.850;6.970;2024-03-02T04:50:34;6.50;99.90
52203;DHT22;38173;52.850;6.970;2024-03-02T04:52:59;6.60;99.90
52203;DHT22;38173;52.850;6.970;2024-03-02T04:55:25;6.60;99.90
52203;DHT22;38173;52.850;6.970;2024-03-02T04:57:54;6.70;99.90
52203;DHT22;38173;52.850;6.970;2024-03-02T05:00:22;6.70;99.90
52203;DHT22;38173;52.850;6.970;2024-03-02T05:02:48;6.70;99.90
52203;DHT22;38173;52.850;6.970;2024-03-02T05:05:14;6.60;99.90
52203;DHT22;38173;52.850;6.970;2024-03-02T05:07:42;6.50;99.90
52203;DHT22;38173;52.850;6.970;2024-03-02T05:10:10;6.60;99.90
52203;DHT22;38173;52.850;6.970;2024-03-02T05:12:37;6.50;99.90
52203;DHT22;38173;52.850;6.970;2024-03-02T05:15:13;6.50;99.90
52203;DHT22;38173;52.850;6.970;2024-03-02T05:17:39;6.50;99.90
52203;DHT22;38173;52.850;6.970;2024-03-02T05:20:06;6.50;99.90
52203;DHT22;38173;52.850;6.970;2024-03-02T05:22:36;6.40;99.90
52203;DHT22;38173;52.850;6.970;2024-03-02T05:25:03;6.40;99.90
52203;DHT22;38173;52.850;6.970;2024-03-02T05:27:29;6.30;99.90
52203;DHT22;38173;52.850;6.970;2024-03-02T05:29:54;6.20;99.90
52203;DHT22;38173;52.850;6.970;2024-03-02T05:32:20;6.20;99.90
52203;DHT22;38173;52.850;6.970;2024-03-02T05:34:46;6.20;99.90
52203;DHT22;38173;52.850;6.970;2024-03-02T05:37:11;6.10;99.90
52203;DHT22;38173;52.850;6.970;2024-03-02T05:39:37;6.10;99.90
52203;DHT22;38173;52.850;6.970;2024-03-02T05:42:03;6.10;99.90
52203;DHT22;38173;52.850;6.970;2024-03-02T05:44:29;6.10;99.90
52203;DHT22;38173;52.850;6.970;2024-03-02T05:46:55;6.10;99.90
52203;DHT22;38173;52.850;6.970;2024-03-02T05:49:21;6.20;99.90
52203;DHT22;38173;52.850;6.970;2024-03-02T05:51:47;6.20;99.90
52203;DHT22;38173;52.850;6.970;2024-03-02T05:54:13;6.20;99.90
52203;DHT22;38173;52.850;6.970;2024-03-02T05:56:38;6.20;99.90
52203;DHT22;38173;52.850;6.970;2024-03-02T05:59:04;6.20;99.90
52203;DHT22;38173;52.850;6.970;2024-03-02T06:01:39;6.20;99.90
52203;DHT22;38173;52.850;6.970;2024-03-02T06:04:06;6.20;99.90
52203;DHT22;38173;52.850;6.970;2024-03-02T06:06:32;6.20;99.90
52203;DHT22;38173;52.850;6.970;2024-03-02T06:09:00;6.20;99.90
52203;DHT22;38173;52.850;6.970;2024-03-02T06:11:26;6.20;99.90
52203;DHT22;38173;52.850;6.970;2024-03-02T06:13:52;6.20;99.90
52203;DHT22;38173;52.850;6.970;2024-03-02T06:16:19;6.20;99.90
52203;DHT22;38173;52.850;6.970;2024-03-02T06:18:45;6.20;99.90
52203;DHT22;38173;52.850;6.970;2024-03-02T06:21:10;6.20;99.90
52203;DHT22;38173;52.850;6.970;2024-03-02T06:23:36;6.10;99.90
52203;DHT22;38173;52.850;6.970;2024-03-02T06:26:02;6.10;99.90
52203;DHT22;38173;52.850;6.970;2024-03-02T06:28:28;6.10;99.90
52203;DHT22;38173;52.850;6.970;2024-03-02T06:30:54;6.10;99.90
52203;DHT22;38173;52.850;6.970;2024-03-02T06:33:23;6.20;99.90
52203;DHT22;38173;52.850;6.970;2024-03-02T06:35:48;6.30;99.90
52203;DHT22;38173;52.850;6.970;2024-03-02T06:38:14;6.30;99.90
52203;DHT22;38173;52.850;6.970;2024-03-02T06:40:40;6.30;99.90
52203;DHT22;38173;52.850;6.970;2024-03-02T06:43:06;6.40;99.90
52203;DHT22;38173;52.850;6.970;2024-03-02T06:45:32;6.40;99.90
52203;DHT22;38173;52.850;6.970;2024-03-02T06:47:59;6.50;99.90
52203;DHT22;38173;52.850;6.970;2024-03-02T06:50:25;6.50;99.90
52203;DHT22;38173;52.850;6.970;2024-03-02T06:52:52;6.50;99.90
52203;DHT22;38173;52.850;6.970;2024-03-02T06:55:20;6.50;99.90
52203;DHT22;38173;52.850;6.970;2024-03-02T06:57:45;6.60;99.90
52203;DHT22;38173;52.850;6.970;2024-03-02T07:00:11;6.60;99.90
52203;DHT22;38173;52.850;6.970;2024-03-02T07:02:37;6.60;99.90
52203;DHT22;38173;52.850;6.970;2024-03-02T07:05:03;6.70;99.90
52203;DHT22;38173;52.850;6.970;2024-03-02T07:07:29;6.60;99.90
52203;DHT22;38173;52.850;6.970;2024-03-02T07:09:55;6.70;99.90
52203;DHT22;38173;52.850;6.970;2024-03-02T07:12:21;6.70;99.90
52203;DHT22;38173;52.850;6.970;2024-03-02T07:14:46;6.80;99.90
52203;DHT22;38173;52.850;6.970;2024-03-02T07:17:21;6.80;99.90
52203;DHT22;38173;52.850;6.970;2024-03-02T07:19:47;6.90;99.90
52203;DHT22;38173;52.850;6.970;2024-03-02T07:22:13;6.90;99.90
52203;DHT22;38173;52.850;6.970;2024-03-02T07:24:44;6.90;99.90
52203;DHT22;38173;52.850;6.970;2024-03-02T07:27:12;6.80;99.90
52203;DHT22;38173;52.850;6.970;2024-03-02T07:29:38;6.70;99.90
52203;DHT22;38173;52.850;6.970;2024-03-02T07:32:05;6.60;99.90
52203;DHT22;38173;52.850;6.970;2024-03-02T07:34:31;6.50;99.90
52203;DHT22;38173;52.850;6.970;2024-03-02T07:36:57;6.50;99.90
52203;DHT22;38173;52.850;6.970;2024-03-02T07:39:23;6.50;99.90
52203;DHT22;38173;52.850;6.970;2024-03-02T07:41:49;6.50;99.90
52203;DHT22;38173;52.850;6.970;2024-03-02T07:44:14;6.60;99.90
52203;DHT22;38173;52.850;6.970;2024-03-02T07:46:44;6.70;99.90
52203;DHT22;38173;52.850;6.970;2024-03-02T07:49:09;6.80;99.90
52203;DHT22;38173;52.850;6.970;2024-03-02T07:51:35;6.90;99.90
52203;DHT22;38173;52.850;6.970;2024-03-02T07:54:07;6.90;99.90
52203;DHT22;38173;52.850;6.970;2024-03-02T07:56:33;7.00;99.90
52203;DHT22;38173;52.850;6.970;2024-03-02T07:58:59;7.00;99.90
52203;DHT22;38173;52.850;6.970;2024-03-02T08:01:33;7.10;99.90
52203;DHT22;38173;52.850;6.970;2024-03-02T08:04:00;7.10;99.90
52203;DHT22;38173;52.850;6.970;2024-03-02T08:06:27;7.10;99.90
52203;DHT22;38173;52.850;6.970;2024-03-02T08:08:54;7.10;99.90
52203;DHT22;38173;52.850;6.970;2024-03-02T08:11:23;7.20;99.90
52203;DHT22;38173;52.850;6.970;2024-03-02T08:13:49;7.20;99.90
52203;DHT22;38173;52.850;6.970;2024-03-02T08:16:18;7.20;99.90
52203;DHT22;38173;52.850;6.970;2024-03-02T08:18:50;7.30;99.90
52203;DHT22;38173;52.850;6.970;2024-03-02T08:21:16;7.30;99.90
52203;DHT22;38173;52.850;6.970;2024-03-02T08:23:43;7.40;99.90
52203;DHT22;38173;52.850;6.970;2024-03-02T08:26:09;7.40;99.90
52203;DHT22;38173;52.850;6.970;2024-03-02T08:28:36;7.60;99.90
52203;DHT22;38173;52.850;6.970;2024-03-02T08:31:08;7.60;99.90
52203;DHT22;38173;52.850;6.970;2024-03-02T08:33:33;7.80;99.90
52203;DHT22;38173;52.850;6.970;2024-03-02T08:35:59;7.90;99.90
52203;DHT22;38173;52.850;6.970;2024-03-02T08:38:26;7.90;99.90
52203;DHT22;38173;52.850;6.970;2024-03-02T08:40:52;7.90;99.90
52203;DHT22;38173;52.850;6.970;2024-03-02T08:43:18;7.90;99.90
52203;DHT22;38173;52.850;6.970;2024-03-02T08:45:44;7.90;99.90
52203;DHT22;38173;52.850;6.970;2024-03-02T08:48:10;8.00;99.90
52203;DHT22;38173;52.850;6.970;2024-03-02T08:50:36;8.10;99.90
52203;DHT22;38173;52.850;6.970;2024-03-02T08:53:03;8.20;99.90
52203;DHT22;38173;52.850;6.970;2024-03-02T08:55:29;8.30;99.90
52203;DHT22;38173;52.850;6.970;2024-03-02T08:57:58;8.50;99.90
52203;DHT22;38173;52.850;6.970;2024-03-02T09:00:24;8.60;99.90
52203;DHT22;38173;52.850;6.970;2024-03-02T09:02:49;8.80;99.90
52203;DHT22;38173;52.850;6.970;2024-03-02T09:05:15;8.90;99.90
52203;DHT22;38173;52.850;6.970;2024-03-02T09:07:41;9.00;99.90
52203;DHT22;38173;52.850;6.970;2024-03-02T09:10:08;9.00;99.90
52203;DHT22;38173;52.850;6.970;2024-03-02T09:12:34;9.00;99.90
52203;DHT22;38173;52.850;6.970;2024-03-02T09:15:01;9.10;99.90
52203;DHT22;38173;52.850;6.970;2024-03-02T09:17:27;9.20;99.90
52203;DHT22;38173;52.850;6.970;2024-03-02T09:19:53;9.20;99.90
52203;DHT22;38173;52.850;6.970;2024-03-02T09:22:19;9.20;99.90
52203;DHT22;38173;52.850;6.970;2024-03-02T09:24:45;9.20;99.90
52203;DHT22;38173;52.850;6.970;2024-03-02T09:27:11;9.30;99.90
52203;DHT22;38173;52.850;6.970;2024-03-02T09:29:37;9.40;99.90
52203;DHT22;38173;52.850;6.970;2024-03-02T09:32:04;9.50;99.90
52203;DHT22;38173;52.850;6.970;2024-03-02T09:34:31;9.70;99.90
52203;DHT22;38173;52.850;6.970;2024-03-02T09:36:57;9.80;99.90
52203;DHT22;38173;52.850;6.970;2024-03-02T09:39:23;9.90;99.90
52203;DHT22;38173;52.850;6.970;2024-03-02T09:41:51;10.00;99.90
52203;DHT22;38173;52.850;6.970;2024-03-02T09:44:17;10.10;99.90
52203;DHT22;38173;52.850;6.970;2024-03-02T09:46:43;10.20;99.90
52203;DHT22;38173;52.850;6.970;2024-03-02T09:49:12;10.20;99.90
52203;DHT22;38173;52.850;6.970;2024-03-02T09:51:38;10.30;99.90
52203;DHT22;38173;52.850;6.970;2024-03-02T09:54:08;10.30;99.90
52203;DHT22;38173;52.850;6.970;2024-03-02T09:56:33;10.40;99.90
52203;DHT22;38173;52.850;6.970;2024-03-02T09:58:59;10.40;99.90
52203;DHT22;38173;52.850;6.970;2024-03-02T10:01:25;10.40;99.90
52203;DHT22;38173;52.850;6.970;2024-03-02T10:03:51;10.50;99.90
52203;DHT22;38173;52.850;6.970;2024-03-02T10:06:21;10.70;99.90
52203;DHT22;38173;52.850;6.970;2024-03-02T10:08:47;10.80;99.90
52203;DHT22;38173;52.850;6.970;2024-03-02T10:11:42;10.90;99.90
52203;DHT22;38173;52.850;6.970;2024-03-02T10:14:12;10.80;99.90
52203;DHT22;38173;52.850;6.970;2024-03-02T10:16:43;10.60;99.90
52203;DHT22;38173;52.850;6.970;2024-03-02T10:19:22;10.40;99.90
52203;DHT22;38173;52.850;6.970;2024-03-02T10:21:48;10.30;99.90
52203;DHT22;38173;52.850;6.970;2024-03-02T10:24:15;10.20;99.90
52203;DHT22;38173;52.850;6.970;2024-03-02T10:26:41;10.30;99.90
52203;DHT22;38173;52.850;6.970;2024-03-02T10:29:13;10.40;99.90
52203;DHT22;38173;52.850;6.970;2024-03-02T10:31:40;10.50;99.90
52203;DHT22;38173;52.850;6.970;2024-03-02T10:34:07;10.60;99.90
52203;DHT22;38173;52.850;6.970;2024-03-02T10:36:34;10.70;99.90
52203;DHT22;38173;52.850;6.970;2024-03-02T10:39:07;10.70;99.90
52203;DHT22;38173;52.850;6.970;2024-03-02T10:41:39;10.80;99.90
52203;DHT22;38173;52.850;6.970;2024-03-02T10:44:07;10.90;99.90
52203;DHT22;38173;52.850;6.970;2024-03-02T10:46:35;11.10;99.90
52203;DHT22;38173;52.850;6.970;2024-03-02T10:49:02;11.10;99.90
52203;DHT22;38173;52.850;6.970;2024-03-02T10:51:30;11.00;99.90
52203;DHT22;38173;52.850;6.970;2024-03-02T10:54:02;10.90;99.90
52203;DHT22;38173;52.850;6.970;2024-03-02T10:56:32;10.80;99.90
52203;DHT22;38173;52.850;6.970;2024-03-02T11:01:47;11.10;99.90
52203;DHT22;38173;52.850;6.970;2024-03-02T11:04:16;11.20;99.90
52203;DHT22;38173;52.850;6.970;2024-03-02T11:06:50;11.20;99.90
52203;DHT22;38173;52.850;6.970;2024-03-02T11:09:20;11.30;99.90
52203;DHT22;38173;52.850;6.970;2024-03-02T11:11:53;11.30;99.90
52203;DHT22;38173;52.850;6.970;2024-03-02T11:14:24;11.60;99.90
52203;DHT22;38173;52.850;6.970;2024-03-02T11:16:51;11.80;99.90
52203;DHT22;38173;52.850;6.970;2024-03-02T11:19:18;12.20;99.90
52203;DHT22;38173;52.850;6.970;2024-03-02T11:21:44;12.40;99.90
52203;DHT22;38173;52.850;6.970;2024-03-02T11:26:53;12.30;99.90
52203;DHT22;38173;52.850;6.970;2024-03-02T11:32:06;12.20;99.90
52203;DHT22;38173;52.850;6.970;2024-03-02T11:34:41;11.90;99.90
52203;DHT22;38173;52.850;6.970;2024-03-02T11:37:11;11.60;99.90
52203;DHT22;38173;52.850;6.970;2024-03-02T11:39:39;11.50;99.90
52203;DHT22;38173;52.850;6.970;2024-03-02T11:42:08;11.50;99.90
52203;DHT22;38173;52.850;6.970;2024-03-02T11:44:37;11.60;99.90
52203;DHT22;38173;52.850;6.970;2024-03-02T11:47:08;11.70;99.90
52203;DHT22;38173;52.850;6.970;2024-03-02T11:52:09;12.40;99.90
52203;DHT22;38173;52.850;6.970;2024-03-02T11:54:39;12.60;99.90
52203;DHT22;38173;52.850;6.970;2024-03-02T11:57:06;12.70;99.90
52203;DHT22;38173;52.850;6.970;2024-03-02T11:59:33;12.60;99.90
52203;DHT22;38173;52.850;6.970;2024-03-02T12:01:59;12.50;99.90
52203;DHT22;38173;52.850;6.970;2024-03-02T12:04:25;12.40;99.90
52203;DHT22;38173;52.850;6.970;2024-03-02T12:06:59;12.30;99.90
52203;DHT22;38173;52.850;6.970;2024-03-02T12:09:26;12.20;99.90
52203;DHT22;38173;52.850;6.970;2024-03-02T12:12:06;12.10;99.90
52203;DHT22;38173;52.850;6.970;2024-03-02T12:14:33;12.00;99.90
52203;DHT22;38173;52.850;6.970;2024-03-02T12:16:59;12.00;99.90
52203;DHT22;38173;52.850;6.970;2024-03-02T12:19:26;12.10;99.90
52203;DHT22;38173;52.850;6.970;2024-03-02T12:21:56;12.30;99.90
52203;DHT22;38173;52.850;6.970;2024-03-02T12:24:22;12.30;99.90
52203;DHT22;38173;52.850;6.970;2024-03-02T12:26:51;12.30;99.90
52203;DHT22;38173;52.850;6.970;2024-03-02T12:29:19;12.30;99.90
52203;DHT22;38173;52.850;6.970;2024-03-02T12:31:51;12.20;99.90
52203;DHT22;38173;52.850;6.970;2024-03-02T12:34:21;12.30;99.90
52203;DHT22;38173;52.850;6.970;2024-03-02T12:36:47;12.40;99.90
52203;DHT22;38173;52.850;6.970;2024-03-02T12:39:20;12.30;99.90
52203;DHT22;38173;52.850;6.970;2024-03-02T12:41:47;12.50;99.90
52203;DHT22;38173;52.850;6.970;2024-03-02T12:44:16;12.60;99.90
52203;DHT22;38173;52.850;6.970;2024-03-02T12:46:45;12.70;99.90
52203;DHT22;38173;52.850;6.970;2024-03-02T12:49:13;12.70;99.90
52203;DHT22;38173;52.850;6.970;2024-03-02T12:51:40;12.60;99.90
52203;DHT22;38173;52.850;6.970;2024-03-02T12:54:10;12.50;99.90
52203;DHT22;38173;52.850;6.970;2024-03-02T12:56:41;12.40;99.90
52203;DHT22;38173;52.850;6.970;2024-03-02T12:59:18;12.40;99.90
52203;DHT22;38173;52.850;6.970;2024-03-02T13:01:55;12.40;99.90
52203;DHT22;38173;52.850;6.970;2024-03-02T13:04:25;12.30;99.90
52203;DHT22;38173;52.850;6.970;2024-03-02T13:06:52;12.40;99.90
52203;DHT22;38173;52.850;6.970;2024-03-02T13:09:18;12.30;99.90
52203;DHT22;38173;52.850;6.970;2024-03-02T13:11:43;12.30;99.90
52203;DHT22;38173;52.850;6.970;2024-03-02T13:14:10;12.30;99.90
52203;DHT22;38173;52.850;6.970;2024-03-02T13:16:40;12.30;99.90
52203;DHT22;38173;52.850;6.970;2024-03-02T13:19:10;12.30;99.90
52203;DHT22;38173;52.850;6.970;2024-03-02T13:21:36;12.30;99.90
52203;DHT22;38173;52.850;6.970;2024-03-02T13:24:02;12.30;99.90
52203;DHT22;38173;52.850;6.970;2024-03-02T13:26:29;12.30;99.90
52203;DHT22;38173;52.850;6.970;2024-03-02T13:28:54;12.30;99.90
52203;DHT22;38173;52.850;6.970;2024-03-02T13:31:20;12.50;99.90
52203;DHT22;38173;52.850;6.970;2024-03-02T13:33:46;12.70;99.90
52203;DHT22;38173;52.850;6.970;2024-03-02T13:36:12;12.80;99.90
52203;DHT22;38173;52.850;6.970;2024-03-02T13:38:38;12.80;99.90
52203;DHT22;38173;52.850;6.970;2024-03-02T13:41:04;12.80;99.90
52203;DHT22;38173;52.850;6.970;2024-03-02T13:43:29;12.70;99.90
52203;DHT22;38173;52.850;6.970;2024-03-02T13:45:58;12.70;99.90
52203;DHT22;38173;52.850;6.970;2024-03-02T13:48:24;12.60;99.90
52203;DHT22;38173;52.850;6.970;2024-03-02T13:50:53;12.60;99.90
52203;DHT22;38173;52.850;6.970;2024-03-02T13:53:19;12.60;99.90
52203;DHT22;38173;52.850;6.970;2024-03-02T13:55:45;12.70;99.90
52203;DHT22;38173;52.850;6.970;2024-03-02T13:58:13;12.70;99.90
52203;DHT22;38173;52.850;6.970;2024-03-02T14:00:39;12.60;99.90
52203;DHT22;38173;52.850;6.970;2024-03-02T14:03:08;12.60;99.90
52203;DHT22;38173;52.850;6.970;2024-03-02T14:05:34;12.60;99.90
52203;DHT22;38173;52.850;6.970;2024-03-02T14:08:00;12.50;99.90
52203;DHT22;38173;52.850;6.970;2024-03-02T14:10:29;12.50;99.90
52203;DHT22;38173;52.850;6.970;2024-03-02T14:12:55;12.40;99.90
52203;DHT22;38173;52.850;6.970;2024-03-02T14:15:22;12.40;99.90
52203;DHT22;38173;52.850;6.970;2024-03-02T14:17:48;12.60;99.90
52203;DHT22;38173;52.850;6.970;2024-03-02T14:20:14;12.70;99.90
52203;DHT22;38173;52.850;6.970;2024-03-02T14:22:40;12.70;99.90
52203;DHT22;38173;52.850;6.970;2024-03-02T14:25:05;12.60;99.90
52203;DHT22;38173;52.850;6.970;2024-03-02T14:27:31;12.60;99.90
52203;DHT22;38173;52.850;6.970;2024-03-02T14:29:57;12.40;99.90
52203;DHT22;38173;52.850;6.970;2024-03-02T14:32:24;12.30;99.90
52203;DHT22;38173;52.850;6.970;2024-03-02T14:34:50;12.30;99.90
52203;DHT22;38173;52.850;6.970;2024-03-02T14:37:15;12.30;99.90
52203;DHT22;38173;52.850;6.970;2024-03-02T14:39:43;12.40;99.90
52203;DHT22;38173;52.850;6.970;2024-03-02T14:42:12;12.40;99.90
52203;DHT22;38173;52.850;6.970;2024-03-02T14:44:37;12.40;99.90
52203;DHT22;38173;52.850;6.970;2024-03-02T14:47:03;12.40;99.90
52203;DHT22;38173;52.850;6.970;2024-03-02T14:49:30;12.60;99.90
52203;DHT22;38173;52.850;6.970;2024-03-02T14:51:56;12.90;99.90
52203;DHT22;38173;52.850;6.970;2024-03-02T14:54:22;13.00;99.90
52203;DHT22;38173;52.850;6.970;2024-03-02T14:56:48;13.10;99.90
52203;DHT22;38173;52.850;6.970;2024-03-02T14:59:14;13.10;99.90
52203;DHT22;38173;52.850;6.970;2024-03-02T15:01:40;13.00;99.90
52203;DHT22;38173;52.850;6.970;2024-03-02T15:04:06;13.00;99.90
52203;DHT22;38173;52.850;6.970;2024-03-02T15:06:32;13.00;99.90
52203;DHT22;38173;52.850;6.970;2024-03-02T15:08:58;12.90;99.90
52203;DHT22;38173;52.850;6.970;2024-03-02T15:11:24;13.00;99.90
52203;DHT22;38173;52.850;6.970;2024-03-02T15:13:53;13.20;99.90
52203;DHT22;38173;52.850;6.970;2024-03-02T15:16:19;13.40;99.90
52203;DHT22;38173;52.850;6.970;2024-03-02T15:18:45;13.40;99.90
52203;DHT22;38173;52.850;6.970;2024-03-02T15:21:11;13.20;99.90
52203;DHT22;38173;52.850;6.970;2024-03-02T15:23:37;13.00;99.90
52203;DHT22;38173;52.850;6.970;2024-03-02T15:26:03;12.80;99.90
52203;DHT22;38173;52.850;6.970;2024-03-02T15:28:32;12.60;99.90
52203;DHT22;38173;52.850;6.970;2024-03-02T15:31:00;12.70;99.90
52203;DHT22;38173;52.850;6.970;2024-03-02T15:33:26;12.80;99.90
52203;DHT22;38173;52.850;6.970;2024-03-02T15:36:00;12.90;99.90
52203;DHT22;38173;52.850;6.970;2024-03-02T15:38:26;13.10;99.90
52203;DHT22;38173;52.850;6.970;2024-03-02T15:40:52;13.20;99.90
52203;DHT22;38173;52.850;6.970;2024-03-02T15:43:18;13.40;99.90
52203;DHT22;38173;52.850;6.970;2024-03-02T15:45:43;13.60;99.90
52203;DHT22;38173;52.850;6.970;2024-03-02T15:48:09;14.00;99.90
52203;DHT22;38173;52.850;6.970;2024-03-02T15:50:35;14.30;99.90
52203;DHT22;38173;52.850;6.970;2024-03-02T15:53:02;14.60;99.90
52203;DHT22;38173;52.850;6.970;2024-03-02T15:55:31;14.60;99.90
52203;DHT22;38173;52.850;6.970;2024-03-02T15:57:57;14.50;99.90